sensor_id;sensor_type;location;lat;lon;timestamp;P1;durP1;ratioP1;P2;durP2;ratioP2
1577;SDS011;57623;53.608;10.004;2024-03-25T00:00:24;3.93;;;1.90;;
1577;SDS011;57623;53.608;10.004;2024-03-25T00:02:50;4.10;;;1.80;;
1577;SDS011;57623;53.608;10.004;2024-03-25T00:05:18;4.70;;;2.40;;
1577;SDS011;57623;53.608;10.004;2024-03-25T00:07:47;4.77;;;2.13;;
1577;SDS011;57623;53.608;10.004;2024-03-25T00:10:17;4.17;;;2.33;;
1577;SDS011;57623;53.608;10.004;2024-03-25T00:12:45;6.40;;;2.67;;
1577;SDS011;57623;53.608;10.004;2024-03-25T00:15:13;5.27;;;2.60;;
1577;SDS011;57623;53.608;10.004;2024-03-25T00:17:39;3.70;;;2.37;;
1577;SDS011;57623;53.608;10.004;2024-03-25T00:20:08;4.83;;;2.70;;
1577;SDS011;57623;53.608;10.004;2024-03-25T00:22:34;4.53;;;2.03;;
1577;SDS011;57623;53.608;10.004;2024-03-25T00:25:02;3.57;;;2.20;;
1577;SDS011;57623;53.608;10.004;2024-03-25T00:27:29;5.20;;;2.37;;
1577;SDS011;57623;53.608;10.004;2024-03-25T00:29:56;2.87;;;2.40;;
1577;SDS011;57623;53.608;10.004;2024-03-25T00:32:22;4.03;;;2.13;;
1577;SDS011;57623;53.608;10.004;2024-03-25T00:34:50;5.47;;;2.60;;
1577;SDS011;57623;53.608;10.004;2024-03-25T00:37:16;4.47;;;1.97;;
1577;SDS011;57623;53.608;10.004;2024-03-25T00:39:43;3.10;;;2.13;;
1577;SDS011;57623;53.608;10.004;2024-03-25T00:42:09;6.10;;;2.10;;
1577;SDS011;57623;53.608;10.004;2024-03-25T00:44:37;4.33;;;1.97;;
1577;SDS011;57623;53.608;10.004;2024-03-25T00:47:03;4.23;;;1.97;;
1577;SDS011;57623;53.608;10.004;2024-03-25T00:49:30;6.47;;;2.20;;
1577;SDS011;57623;53.608;10.004;2024-03-25T00:51:56;5.20;;;2.43;;
1577;SDS011;57623;53.608;10.004;2024-03-25T00:54:23;5.93;;;2.10;;
1577;SDS011;57623;53.608;10.004;2024-03-25T00:56:49;6.37;;;2.20;;
1577;SDS011;57623;53.608;10.004;2024-03-25T00:59:18;3.87;;;2.10;;
1577;SDS011;57623;53.608;10.004;2024-03-25T01:01:46;4.73;;;2.10;;
1577;SDS011;57623;53.608;10.004;2024-03-25T01:04:13;5.90;;;2.63;;
1577;SDS011;57623;53.608;10.004;2024-03-25T01:06:39;3.90;;;2.60;;
1577;SDS011;57623;53.608;10.004;2024-03-25T01:09:06;4.90;;;2.27;;
1577;SDS011;57623;53.608;10.004;2024-03-25T01:11:32;4.23;;;2.20;;
1577;SDS011;57623;53.608;10.004;2024-03-25T01:14:00;4.83;;;2.40;;
1577;SDS011;57623;53.608;10.004;2024-03-25T01:16:26;5.03;;;2.23;;
1577;SDS011;57623;53.608;10.004;2024-03-25T01:18:54;5.20;;;2.80;;
1577;SDS011;57623;53.608;10.004;2024-03-25T01:21:20;4.83;;;2.80;;
1577;SDS011;57623;53.608;10.004;2024-03-25T01:23:47;6.40;;;3.10;;
1577;SDS011;57623;53.608;10.004;2024-03-25T01:26:13;5.40;;;2.50;;
1577;SDS011;57623;53.608;10.004;2024-03-25T01:28:40;6.93;;;3.13;;
1577;SDS011;57623;53.608;10.004;2024-03-25T01:31:07;5.80;;;2.80;;
1577;SDS011;57623;53.608;10.004;2024-03-25T01:33:34;7.43;;;3.73;;
1577;SDS011;57623;53.608;10.004;2024-03-25T01:36:01;5.43;;;3.07;;
1577;SDS011;57623;53.608;10.004;2024-03-25T01:38:28;4.67;;;2.83;;
1577;SDS011;57623;53.608;10.004;2024-03-25T01:40:54;4.87;;;2.93;;
1577;SDS011;57623;53.608;10.004;2024-03-25T01:43:22;6.47;;;3.20;;
1577;SDS011;57623;53.608;10.004;2024-03-25T01:45:49;6.17;;;3.00;;
1577;SDS011;57623;53.608;10.004;2024-03-25T01:48:17;5.87;;;2.90;;
1577;SDS011;57623;53.608;10.004;2024-03-25T01:50:44;5.53;;;2.50;;
1577;SDS011;57623;53.608;10.004;2024-03-25T01:53:13;5.23;;;2.90;;
1577;SDS011;57623;53.608;10.004;2024-03-25T01:55:39;4.43;;;2.90;;
1577;SDS011;57623;53.608;10.004;2024-03-25T01:58:08;8.93;;;3.40;;
1577;SDS011;57623;53.608;10.004;2024-03-25T02:00:34;6.73;;;2.80;;
1577;SDS011;57623;53.608;10.004;2024-03-25T02:03:02;4.90;;;2.77;;
1577;SDS011;57623;53.608;10.004;2024-03-25T02:05:29;7.93;;;3.70;;
1577;SDS011;57623;53.608;10.004;2024-03-25T02:07:56;4.20;;;3.10;;
1577;SDS011;57623;53.608;10.004;2024-03-25T02:10:24;4.90;;;2.87;;
1577;SDS011;57623;53.608;10.004;2024-03-25T02:12:52;6.23;;;3.80;;
1577;SDS011;57623;53.608;10.004;2024-03-25T02:15:18;5.03;;;3.30;;
1577;SDS011;57623;53.608;10.004;2024-03-25T02:17:45;5.80;;;3.53;;
1577;SDS011;57623;53.608;10.004;2024-03-25T02:20:11;4.30;;;2.57;;
1577;SDS011;57623;53.608;10.004;2024-03-25T02:22:41;4.10;;;2.70;;
1577;SDS011;57623;53.608;10.004;2024-03-25T02:25:08;6.23;;;2.27;;
1577;SDS011;57623;53.608;10.004;2024-03-25T02:27:37;3.80;;;2.50;;
1577;SDS011;57623;53.608;10.004;2024-03-25T02:30:04;3.53;;;2.73;;
1577;SDS011;57623;53.608;10.004;2024-03-25T02:32:32;4.47;;;2.57;;
1577;SDS011;57623;53.608;10.004;2024-03-25T02:34:58;3.83;;;2.03;;
1577;SDS011;57623;53.608;10.004;2024-03-25T02:37:27;4.03;;;2.00;;
1577;SDS011;57623;53.608;10.004;2024-03-25T02:39:53;3.50;;;2.20;;
1577;SDS011;57623;53.608;10.004;2024-03-25T02:42:24;3.27;;;2.23;;
1577;SDS011;57623;53.608;10.004;2024-03-25T02:44:53;3.03;;;2.07;;
1577;SDS011;57623;53.608;10.004;2024-03-25T02:47:20;6.23;;;2.77;;
1577;SDS011;57623;53.608;10.004;2024-03-25T02:49:46;2.63;;;2.20;;
1577;SDS011;57623;53.608;10.004;2024-03-25T02:52:13;3.50;;;2.20;;
1577;SDS011;57623;53.608;10.004;2024-03-25T02:54:40;2.80;;;1.90;;
1577;SDS011;57623;53.608;10.004;2024-03-25T02:57:07;5.63;;;2.60;;
1577;SDS011;57623;53.608;10.004;2024-03-25T02:59:33;2.40;;;2.13;;
1577;SDS011;57623;53.608;10.004;2024-03-25T03:02:01;2.93;;;2.40;;
1577;SDS011;57623;53.608;10.004;2024-03-25T03:04:27;3.63;;;2.47;;
1577;SDS011;57623;53.608;10.004;2024-03-25T03:06:55;3.80;;;2.33;;
1577;SDS011;57623;53.608;10.004;2024-03-25T03:09:21;4.73;;;2.40;;
1577;SDS011;57623;53.608;10.004;2024-03-25T03:11:49;7.97;;;2.40;;
1577;SDS011;57623;53.608;10.004;2024-03-25T03:14:15;5.50;;;2.20;;
1577;SDS011;57623;53.608;10.004;2024-03-25T03:16:42;5.13;;;2.23;;
1577;SDS011;57623;53.608;10.004;2024-03-25T03:19:09;3.77;;;2.60;;
1577;SDS011;57623;53.608;10.004;2024-03-25T03:21:36;4.60;;;2.00;;
1577;SDS011;57623;53.608;10.004;2024-03-25T03:24:03;2.67;;;1.90;;
1577;SDS011;57623;53.608;10.004;2024-03-25T03:26:30;8.20;;;2.47;;
1577;SDS011;57623;53.608;10.004;2024-03-25T03:28:56;2.50;;;2.03;;
1577;SDS011;57623;53.608;10.004;2024-03-25T03:31:23;4.80;;;2.00;;
1577;SDS011;57623;53.608;10.004;2024-03-25T03:33:53;5.00;;;2.10;;
1577;SDS011;57623;53.608;10.004;2024-03-25T03:36:21;3.83;;;2.10;;
1577;SDS011;57623;53.608;10.004;2024-03-25T03:38:49;3.20;;;2.27;;
1577;SDS011;57623;53.608;10.004;2024-03-25T03:41:16;4.17;;;1.90;;
1577;SDS011;57623;53.608;10.004;2024-03-25T03:43:43;4.00;;;1.70;;
1577;SDS011;57623;53.608;10.004;2024-03-25T03:46:09;4.70;;;1.80;;
1577;SDS011;57623;53.608;10.004;2024-03-25T03:48:36;3.87;;;1.70;;
1577;SDS011;57623;53.608;10.004;2024-03-25T03:51:03;2.63;;;1.63;;
1577;SDS011;57623;53.608;10.004;2024-03-25T03:53:32;6.63;;;1.90;;
1577;SDS011;57623;53.608;10.004;2024-03-25T03:55:59;4.17;;;1.73;;
1577;SDS011;57623;53.608;10.004;2024-03-25T03:58:28;3.83;;;2.50;;
1577;SDS011;57623;53.608;10.004;2024-03-25T04:00:54;4.10;;;2.00;;
1577;SDS011;57623;53.608;10.004;2024-03-25T04:03:21;3.10;;;1.70;;
1577;SDS011;57623;53.608;10.004;2024-03-25T04:05:47;2.40;;;1.53;;
1577;SDS011;57623;53.608;10.004;2024-03-25T04:08:15;4.33;;;1.90;;
1577;SDS011;57623;53.608;10.004;2024-03-25T04:10:43;10.50;;;2.30;;
1577;SDS011;57623;53.608;10.004;2024-03-25T04:13:11;6.20;;;1.87;;
1577;SDS011;57623;53.608;10.004;2024-03-25T04:15:38;2.70;;;2.07;;
1577;SDS011;57623;53.608;10.004;2024-03-25T04:18:06;5.10;;;2.57;;
1577;SDS011;57623;53.608;10.004;2024-03-25T04:20:35;2.30;;;1.87;;
1577;SDS011;57623;53.608;10.004;2024-03-25T04:23:03;4.10;;;2.10;;
1577;SDS011;57623;53.608;10.004;2024-03-25T04:25:29;2.27;;;1.50;;
1577;SDS011;57623;53.608;10.004;2024-03-25T04:27:59;2.60;;;1.90;;
1577;SDS011;57623;53.608;10.004;2024-03-25T04:30:25;2.37;;;1.53;;
1577;SDS011;57623;53.608;10.004;2024-03-25T04:32:53;1.70;;;1.60;;
1577;SDS011;57623;53.608;10.004;2024-03-25T04:35:19;2.53;;;1.70;;
1577;SDS011;57623;53.608;10.004;2024-03-25T04:37:46;5.30;;;2.17;;
1577;SDS011;57623;53.608;10.004;2024-03-25T04:40:12;2.43;;;1.90;;
1577;SDS011;57623;53.608;10.004;2024-03-25T04:42:39;3.60;;;1.90;;
1577;SDS011;57623;53.608;10.004;2024-03-25T04:45:07;2.87;;;1.60;;
1577;SDS011;57623;53.608;10.004;2024-03-25T04:47:34;1.80;;;1.60;;
1577;SDS011;57623;53.608;10.004;2024-03-25T04:50:00;3.30;;;1.90;;
1577;SDS011;57623;53.608;10.004;2024-03-25T04:52:26;2.33;;;1.67;;
1577;SDS011;57623;53.608;10.004;2024-03-25T04:54:52;1.73;;;1.40;;
1577;SDS011;57623;53.608;10.004;2024-03-25T04:57:18;2.20;;;1.70;;
1577;SDS011;57623;53.608;10.004;2024-03-25T04:59:44;2.73;;;1.57;;
1577;SDS011;57623;53.608;10.004;2024-03-25T05:02:12;2.70;;;1.70;;
1577;SDS011;57623;53.608;10.004;2024-03-25T05:04:38;3.43;;;1.57;;
1577;SDS011;57623;53.608;10.004;2024-03-25T05:07:04;2.57;;;1.60;;
1577;SDS011;57623;53.608;10.004;2024-03-25T05:09:30;2.03;;;1.40;;
1577;SDS011;57623;53.608;10.004;2024-03-25T05:11:57;1.63;;;1.40;;
1577;SDS011;57623;53.608;10.004;2024-03-25T05:14:23;3.40;;;1.70;;
1577;SDS011;57623;53.608;10.004;2024-03-25T05:16:50;3.10;;;1.50;;
1577;SDS011;57623;53.608;10.004;2024-03-25T05:19:17;2.00;;;1.80;;
1577;SDS011;57623;53.608;10.004;2024-03-25T05:21:43;1.50;;;1.40;;
1577;SDS011;57623;53.608;10.004;2024-03-25T05:24:10;3.57;;;1.60;;
1577;SDS011;57623;53.608;10.004;2024-03-25T05:26:36;2.63;;;1.20;;
1577;SDS011;57623;53.608;10.004;2024-03-25T05:29:02;1.40;;;1.30;;
1577;SDS011;57623;53.608;10.004;2024-03-25T05:31:28;4.40;;;1.70;;
1577;SDS011;57623;53.608;10.004;2024-03-25T05:33:54;1.70;;;1.53;;
1577;SDS011;57623;53.608;10.004;2024-03-25T05:36:22;1.50;;;1.40;;
1577;SDS011;57623;53.608;10.004;2024-03-25T05:38:48;2.80;;;1.67;;
1577;SDS011;57623;53.608;10.004;2024-03-25T05:41:14;1.97;;;1.47;;
1577;SDS011;57623;53.608;10.004;2024-03-25T05:43:40;3.00;;;1.80;;
1577;SDS011;57623;53.608;10.004;2024-03-25T05:46:06;2.00;;;1.80;;
1577;SDS011;57623;53.608;10.004;2024-03-25T05:48:32;5.17;;;2.13;;
1577;SDS011;57623;53.608;10.004;2024-03-25T05:50:59;2.87;;;1.70;;
1577;SDS011;57623;53.608;10.004;2024-03-25T05:53:28;2.07;;;1.70;;
1577;SDS011;57623;53.608;10.004;2024-03-25T05:55:54;2.00;;;1.90;;
1577;SDS011;57623;53.608;10.004;2024-03-25T05:58:20;2.30;;;1.70;;
1577;SDS011;57623;53.608;10.004;2024-03-25T06:00:47;3.43;;;2.20;;
1577;SDS011;57623;53.608;10.004;2024-03-25T06:03:13;2.13;;;1.90;;
1577;SDS011;57623;53.608;10.004;2024-03-25T06:05:39;3.97;;;1.93;;
1577;SDS011;57623;53.608;10.004;2024-03-25T06:08:06;2.90;;;2.00;;
1577;SDS011;57623;53.608;10.004;2024-03-25T06:10:38;3.50;;;1.63;;
1577;SDS011;57623;53.608;10.004;2024-03-25T06:13:04;1.70;;;1.60;;
1577;SDS011;57623;53.608;10.004;2024-03-25T06:15:30;2.60;;;1.97;;
1577;SDS011;57623;53.608;10.004;2024-03-25T06:17:56;3.37;;;2.10;;
1577;SDS011;57623;53.608;10.004;2024-03-25T06:20:22;2.10;;;1.90;;
1577;SDS011;57623;53.608;10.004;2024-03-25T06:22:48;2.90;;;1.93;;
1577;SDS011;57623;53.608;10.004;2024-03-25T06:25:15;3.77;;;2.27;;
1577;SDS011;57623;53.608;10.004;2024-03-25T06:27:42;2.37;;;2.17;;
1577;SDS011;57623;53.608;10.004;2024-03-25T06:30:09;3.10;;;2.00;;
1577;SDS011;57623;53.608;10.004;2024-03-25T06:32:54;3.70;;;2.30;;
1577;SDS011;57623;53.608;10.004;2024-03-25T06:35:39;2.43;;;2.23;;
1577;SDS011;57623;53.608;10.004;2024-03-25T06:38:05;3.73;;;2.20;;
1577;SDS011;57623;53.608;10.004;2024-03-25T06:40:31;2.97;;;2.30;;
1577;SDS011;57623;53.608;10.004;2024-03-25T06:42:58;4.10;;;2.80;;
1577;SDS011;57623;53.608;10.004;2024-03-25T06:45:24;3.00;;;2.67;;
1577;SDS011;57623;53.608;10.004;2024-03-25T06:47:50;3.03;;;2.30;;
1577;SDS011;57623;53.608;10.004;2024-03-25T06:50:17;3.60;;;2.20;;
1577;SDS011;57623;53.608;10.004;2024-03-25T06:52:43;2.63;;;2.30;;
1577;SDS011;57623;53.608;10.004;2024-03-25T06:55:09;2.90;;;1.90;;
1577;SDS011;57623;53.608;10.004;2024-03-25T06:57:35;3.10;;;1.77;;
1577;SDS011;57623;53.608;10.004;2024-03-25T07:00:03;4.00;;;1.80;;
1577;SDS011;57623;53.608;10.004;2024-03-25T07:02:29;2.70;;;2.00;;
1577;SDS011;57623;53.608;10.004;2024-03-25T07:04:56;1.70;;;1.60;;
1577;SDS011;57623;53.608;10.004;2024-03-25T07:07:22;2.53;;;1.83;;
1577;SDS011;57623;53.608;10.004;2024-03-25T07:09:48;2.70;;;1.87;;
1577;SDS011;57623;53.608;10.004;2024-03-25T07:12:14;2.40;;;1.70;;
1577;SDS011;57623;53.608;10.004;2024-03-25T07:14:40;3.40;;;1.97;;
1577;SDS011;57623;53.608;10.004;2024-03-25T07:17:07;2.10;;;1.90;;
1577;SDS011;57623;53.608;10.004;2024-03-25T07:19:34;2.73;;;1.80;;
1577;SDS011;57623;53.608;10.004;2024-03-25T07:22:00;2.07;;;1.90;;
1577;SDS011;57623;53.608;10.004;2024-03-25T07:24:26;4.00;;;2.13;;
1577;SDS011;57623;53.608;10.004;2024-03-25T07:26:52;4.80;;;2.00;;
1577;SDS011;57623;53.608;10.004;2024-03-25T07:29:18;6.80;;;2.37;;
1577;SDS011;57623;53.608;10.004;2024-03-25T07:31:44;2.33;;;1.80;;
1577;SDS011;57623;53.608;10.004;2024-03-25T07:34:12;2.33;;;2.13;;
1577;SDS011;57623;53.608;10.004;2024-03-25T07:36:38;5.83;;;2.20;;
1577;SDS011;57623;53.608;10.004;2024-03-25T07:39:04;3.50;;;2.33;;
1577;SDS011;57623;53.608;10.004;2024-03-25T07:41:31;2.30;;;1.77;;
1577;SDS011;57623;53.608;10.004;2024-03-25T07:43:57;4.23;;;2.17;;
1577;SDS011;57623;53.608;10.004;2024-03-25T07:46:23;3.97;;;2.20;;
1577;SDS011;57623;53.608;10.004;2024-03-25T07:48:49;3.40;;;2.30;;
1577;SDS011;57623;53.608;10.004;2024-03-25T07:51:16;2.67;;;2.20;;
1577;SDS011;57623;53.608;10.004;2024-03-25T07:53:43;5.80;;;2.90;;
1577;SDS011;57623;53.608;10.004;2024-03-25T07:56:09;1.90;;;1.80;;
1577;SDS011;57623;53.608;10.004;2024-03-25T07:58:35;2.13;;;1.90;;
1577;SDS011;57623;53.608;10.004;2024-03-25T08:01:01;4.27;;;1.80;;
1577;SDS011;57623;53.608;10.004;2024-03-25T08:03:27;4.20;;;2.00;;
1577;SDS011;57623;53.608;10.004;2024-03-25T08:05:53;3.40;;;2.07;;
1577;SDS011;57623;53.608;10.004;2024-03-25T08:08:21;3.20;;;1.83;;
1577;SDS011;57623;53.608;10.004;2024-03-25T08:10:47;4.37;;;2.50;;
1577;SDS011;57623;53.608;10.004;2024-03-25T08:13:13;7.33;;;2.53;;
1577;SDS011;57623;53.608;10.004;2024-03-25T08:15:39;5.47;;;2.20;;
1577;SDS011;57623;53.608;10.004;2024-03-25T08:18:06;3.53;;;2.07;;
1577;SDS011;57623;53.608;10.004;2024-03-25T08:20:32;3.60;;;2.00;;
1577;SDS011;57623;53.608;10.004;2024-03-25T08:22:59;5.50;;;2.37;;
1577;SDS011;57623;53.608;10.004;2024-03-25T08:25:26;5.37;;;2.67;;
1577;SDS011;57623;53.608;10.004;2024-03-25T08:27:52;5.33;;;2.00;;
1577;SDS011;57623;53.608;10.004;2024-03-25T08:30:18;4.97;;;2.83;;
1577;SDS011;57623;53.608;10.004;2024-03-25T08:32:44;4.67;;;2.63;;
1577;SDS011;57623;53.608;10.004;2024-03-25T08:35:10;4.20;;;2.90;;
1577;SDS011;57623;53.608;10.004;2024-03-25T08:37:37;6.23;;;3.30;;
1577;SDS011;57623;53.608;10.004;2024-03-25T08:40:03;5.03;;;3.17;;
1577;SDS011;57623;53.608;10.004;2024-03-25T08:42:31;6.60;;;3.60;;
1577;SDS011;57623;53.608;10.004;2024-03-25T08:44:58;5.80;;;3.03;;
1577;SDS011;57623;53.608;10.004;2024-03-25T08:47:24;5.23;;;2.53;;
1577;SDS011;57623;53.608;10.004;2024-03-25T08:49:50;5.27;;;2.50;;
1577;SDS011;57623;53.608;10.004;2024-03-25T08:52:16;5.07;;;2.63;;
1577;SDS011;57623;53.608;10.004;2024-03-25T08:54:42;4.83;;;2.10;;
1577;SDS011;57623;53.608;10.004;2024-03-25T08:57:08;5.10;;;2.60;;
1577;SDS011;57623;53.608;10.004;2024-03-25T08:59:36;5.33;;;2.87;;
1577;SDS011;57623;53.608;10.004;2024-03-25T09:02:02;4.80;;;1.90;;
1577;SDS011;57623;53.608;10.004;2024-03-25T09:04:28;5.17;;;2.40;;
1577;SDS011;57623;53.608;10.004;2024-03-25T09:06:54;2.63;;;1.93;;
1577;SDS011;57623;53.608;10.004;2024-03-25T09:09:20;2.70;;;1.77;;
1577;SDS011;57623;53.608;10.004;2024-03-25T09:12:05;4.60;;;1.63;;
1577;SDS011;57623;53.608;10.004;2024-03-25T09:14:32;5.00;;;1.50;;
1577;SDS011;57623;53.608;10.004;2024-03-25T09:16:59;3.40;;;2.10;;
1577;SDS011;57623;53.608;10.004;2024-03-25T09:19:25;6.83;;;1.60;;
1577;SDS011;57623;53.608;10.004;2024-03-25T09:21:52;6.43;;;2.20;;
1577;SDS011;57623;53.608;10.004;2024-03-25T09:24:18;3.40;;;2.20;;
1577;SDS011;57623;53.608;10.004;2024-03-25T09:26:44;1.93;;;1.40;;
1577;SDS011;57623;53.608;10.004;2024-03-25T09:29:11;4.90;;;1.90;;
1577;SDS011;57623;53.608;10.004;2024-03-25T09:31:37;3.77;;;1.63;;
1577;SDS011;57623;53.608;10.004;2024-03-25T09:34:05;6.60;;;2.00;;
1577;SDS011;57623;53.608;10.004;2024-03-25T09:36:31;7.63;;;1.73;;
1577;SDS011;57623;53.608;10.004;2024-03-25T09:38:57;3.80;;;2.10;;
1577;SDS011;57623;53.608;10.004;2024-03-25T09:41:23;2.87;;;1.57;;
1577;SDS011;57623;53.608;10.004;2024-03-25T09:43:52;5.80;;;1.97;;
1577;SDS011;57623;53.608;10.004;2024-03-25T09:46:20;4.50;;;1.90;;
1577;SDS011;57623;53.608;10.004;2024-03-25T09:48:48;2.77;;;2.20;;
1577;SDS011;57623;53.608;10.004;2024-03-25T09:51:19;5.00;;;1.90;;
1577;SDS011;57623;53.608;10.004;2024-03-25T09:53:45;3.23;;;1.63;;
1577;SDS011;57623;53.608;10.004;2024-03-25T09:56:11;3.93;;;1.53;;
1577;SDS011;57623;53.608;10.004;2024-03-25T09:58:38;5.43;;;2.17;;
1577;SDS011;57623;53.608;10.004;2024-03-25T10:01:05;2.50;;;1.70;;
1577;SDS011;57623;53.608;10.004;2024-03-25T10:03:31;3.57;;;1.70;;
1577;SDS011;57623;53.608;10.004;2024-03-25T10:05:57;2.60;;;1.93;;
1577;SDS011;57623;53.608;10.004;2024-03-25T10:08:25;4.50;;;2.20;;
1577;SDS011;57623;53.608;10.004;2024-03-25T10:10:51;5.37;;;2.27;;
1577;SDS011;57623;53.608;10.004;2024-03-25T10:13:17;4.90;;;1.70;;
1577;SDS011;57623;53.608;10.004;2024-03-25T10:15:46;4.27;;;2.10;;
1577;SDS011;57623;53.608;10.004;2024-03-25T10:18:13;4.47;;;1.90;;
1577;SDS011;57623;53.608;10.004;2024-03-25T10:20:47;5.77;;;2.27;;
1577;SDS011;57623;53.608;10.004;2024-03-25T10:23:13;3.00;;;1.97;;
1577;SDS011;57623;53.608;10.004;2024-03-25T10:25:41;4.57;;;1.90;;
1577;SDS011;57623;53.608;10.004;2024-03-25T10:28:08;7.00;;;2.00;;
1577;SDS011;57623;53.608;10.004;2024-03-25T10:30:34;6.30;;;2.17;;
1577;SDS011;57623;53.608;10.004;2024-03-25T10:33:00;8.50;;;2.30;;
1577;SDS011;57623;53.608;10.004;2024-03-25T10:35:27;5.23;;;2.13;;
1577;SDS011;57623;53.608;10.004;2024-03-25T10:37:55;4.63;;;1.67;;
1577;SDS011;57623;53.608;10.004;2024-03-25T10:40:25;5.93;;;2.50;;
1577;SDS011;57623;53.608;10.004;2024-03-25T10:42:55;6.87;;;1.93;;
1577;SDS011;57623;53.608;10.004;2024-03-25T10:45:26;4.13;;;1.67;;
1577;SDS011;57623;53.608;10.004;2024-03-25T10:47:54;5.40;;;1.90;;
1577;SDS011;57623;53.608;10.004;2024-03-25T10:50:24;3.87;;;1.60;;
1577;SDS011;57623;53.608;10.004;2024-03-25T10:52:54;4.37;;;1.83;;
1577;SDS011;57623;53.608;10.004;2024-03-25T10:55:22;3.90;;;1.57;;
1577;SDS011;57623;53.608;10.004;2024-03-25T10:57:49;5.00;;;2.47;;
1577;SDS011;57623;53.608;10.004;2024-03-25T11:00:18;3.30;;;1.60;;
1577;SDS011;57623;53.608;10.004;2024-03-25T11:02:45;6.87;;;2.50;;
1577;SDS011;57623;53.608;10.004;2024-03-25T11:05:11;4.30;;;2.13;;
1577;SDS011;57623;53.608;10.004;2024-03-25T11:07:38;5.27;;;2.10;;
1577;SDS011;57623;53.608;10.004;2024-03-25T11:10:04;5.97;;;1.90;;
1577;SDS011;57623;53.608;10.004;2024-03-25T11:12:32;7.80;;;2.20;;
1577;SDS011;57623;53.608;10.004;2024-03-25T11:15:00;4.37;;;1.83;;
1577;SDS011;57623;53.608;10.004;2024-03-25T11:17:29;4.63;;;1.60;;
1577;SDS011;57623;53.608;10.004;2024-03-25T11:20:05;3.00;;;1.90;;
1577;SDS011;57623;53.608;10.004;2024-03-25T11:22:33;5.37;;;1.70;;
1577;SDS011;57623;53.608;10.004;2024-03-25T11:25:04;5.67;;;1.97;;
1577;SDS011;57623;53.608;10.004;2024-03-25T11:27:32;3.43;;;1.70;;
1577;SDS011;57623;53.608;10.004;2024-03-25T11:29:59;2.30;;;1.47;;
1577;SDS011;57623;53.608;10.004;2024-03-25T11:32:25;3.50;;;1.53;;
1577;SDS011;57623;53.608;10.004;2024-03-25T11:34:54;5.33;;;1.40;;
1577;SDS011;57623;53.608;10.004;2024-03-25T11:37:20;2.00;;;1.03;;
1577;SDS011;57623;53.608;10.004;2024-03-25T11:39:46;5.37;;;1.57;;
1577;SDS011;57623;53.608;10.004;2024-03-25T11:42:12;5.33;;;1.63;;
1577;SDS011;57623;53.608;10.004;2024-03-25T11:44:39;2.40;;;1.10;;
1577;SDS011;57623;53.608;10.004;2024-03-25T11:47:06;5.40;;;2.00;;
1577;SDS011;57623;53.608;10.004;2024-03-25T11:49:38;3.80;;;1.63;;
1577;SDS011;57623;53.608;10.004;2024-03-25T11:52:07;5.03;;;1.60;;
1577;SDS011;57623;53.608;10.004;2024-03-25T11:54:33;5.10;;;1.80;;
1577;SDS011;57623;53.608;10.004;2024-03-25T11:56:59;5.90;;;1.80;;
1577;SDS011;57623;53.608;10.004;2024-03-25T11:59:26;5.00;;;1.87;;
1577;SDS011;57623;53.608;10.004;2024-03-25T12:01:52;3.47;;;1.40;;
1577;SDS011;57623;53.608;10.004;2024-03-25T12:04:18;4.93;;;1.70;;
1577;SDS011;57623;53.608;10.004;2024-03-25T12:06:44;4.87;;;1.50;;
1577;SDS011;57623;53.608;10.004;2024-03-25T12:09:12;4.20;;;1.67;;
1577;SDS011;57623;53.608;10.004;2024-03-25T12:11:57;3.80;;;1.57;;
1577;SDS011;57623;53.608;10.004;2024-03-25T12:14:24;2.80;;;1.40;;
1577;SDS011;57623;53.608;10.004;2024-03-25T12:16:51;4.50;;;1.40;;
1577;SDS011;57623;53.608;10.004;2024-03-25T12:19:18;3.07;;;1.50;;
1577;SDS011;57623;53.608;10.004;2024-03-25T12:21:45;3.13;;;1.73;;
1577;SDS011;57623;53.608;10.004;2024-03-25T12:24:13;3.50;;;1.67;;
1577;SDS011;57623;53.608;10.004;2024-03-25T12:26:39;3.33;;;1.60;;
1577;SDS011;57623;53.608;10.004;2024-03-25T12:29:06;5.43;;;1.70;;
1577;SDS011;57623;53.608;10.004;2024-03-25T12:31:32;3.67;;;1.43;;
1577;SDS011;57623;53.608;10.004;2024-03-25T12:33:58;2.10;;;1.17;;
1577;SDS011;57623;53.608;10.004;2024-03-25T12:36:25;5.33;;;1.70;;
1577;SDS011;57623;53.608;10.004;2024-03-25T12:38:55;2.67;;;1.40;;
1577;SDS011;57623;53.608;10.004;2024-03-25T12:41:24;3.70;;;1.70;;
1577;SDS011;57623;53.608;10.004;2024-03-25T12:43:51;4.07;;;1.50;;
1577;SDS011;57623;53.608;10.004;2024-03-25T12:46:17;1.87;;;1.30;;
1577;SDS011;57623;53.608;10.004;2024-03-25T12:48:43;5.03;;;1.60;;
1577;SDS011;57623;53.608;10.004;2024-03-25T12:51:13;2.97;;;1.83;;
1577;SDS011;57623;53.608;10.004;2024-03-25T12:53:40;5.30;;;1.73;;
1577;SDS011;57623;53.608;10.004;2024-03-25T12:56:07;4.23;;;1.50;;
1577;SDS011;57623;53.608;10.004;2024-03-25T12:58:34;3.60;;;1.57;;
1577;SDS011;57623;53.608;10.004;2024-03-25T13:01:00;1.83;;;1.20;;
1577;SDS011;57623;53.608;10.004;2024-03-25T13:03:27;2.53;;;1.40;;
1577;SDS011;57623;53.608;10.004;2024-03-25T13:05:53;3.27;;;1.63;;
1577;SDS011;57623;53.608;10.004;2024-03-25T13:08:19;4.70;;;2.00;;
1577;SDS011;57623;53.608;10.004;2024-03-25T13:10:45;3.40;;;1.20;;
1577;SDS011;57623;53.608;10.004;2024-03-25T13:13:11;3.97;;;1.57;;
1577;SDS011;57623;53.608;10.004;2024-03-25T13:15:39;4.33;;;1.60;;
1577;SDS011;57623;53.608;10.004;2024-03-25T13:18:05;3.70;;;1.87;;
1577;SDS011;57623;53.608;10.004;2024-03-25T13:20:32;3.23;;;1.40;;
1577;SDS011;57623;53.608;10.004;2024-03-25T13:22:58;4.10;;;1.67;;
1577;SDS011;57623;53.608;10.004;2024-03-25T13:25:24;2.93;;;1.30;;
1577;SDS011;57623;53.608;10.004;2024-03-25T13:27:50;2.97;;;1.60;;
1577;SDS011;57623;53.608;10.004;2024-03-25T13:30:16;3.67;;;1.60;;
1577;SDS011;57623;53.608;10.004;2024-03-25T13:32:44;3.47;;;1.60;;
1577;SDS011;57623;53.608;10.004;2024-03-25T13:35:10;5.87;;;1.80;;
1577;SDS011;57623;53.608;10.004;2024-03-25T13:37:36;3.70;;;1.60;;
1577;SDS011;57623;53.608;10.004;2024-03-25T13:40:03;3.20;;;1.60;;
1577;SDS011;57623;53.608;10.004;2024-03-25T13:42:29;2.90;;;1.50;;
1577;SDS011;57623;53.608;10.004;2024-03-25T13:44:55;2.90;;;1.40;;
1577;SDS011;57623;53.608;10.004;2024-03-25T13:47:22;4.40;;;1.60;;
1577;SDS011;57623;53.608;10.004;2024-03-25T13:49:49;3.93;;;1.47;;
1577;SDS011;57623;53.608;10.004;2024-03-25T13:52:25;3.60;;;1.73;;
1577;SDS011;57623;53.608;10.004;2024-03-25T13:54:51;3.10;;;1.20;;
1577;SDS011;57623;53.608;10.004;2024-03-25T13:57:17;2.30;;;1.47;;
1577;SDS011;57623;53.608;10.004;2024-03-25T13:59:43;4.77;;;1.67;;
1577;SDS011;57623;53.608;10.004;2024-03-25T14:02:09;4.10;;;1.70;;
1577;SDS011;57623;53.608;10.004;2024-03-25T14:04:35;2.67;;;1.50;;
1577;SDS011;57623;53.608;10.004;2024-03-25T14:07:03;4.10;;;1.23;;
1577;SDS011;57623;53.608;10.004;2024-03-25T14:09:29;2.47;;;1.20;;
1577;SDS011;57623;53.608;10.004;2024-03-25T14:11:56;3.83;;;2.17;;
1577;SDS011;57623;53.608;10.004;2024-03-25T14:14:22;4.90;;;1.70;;
1577;SDS011;57623;53.608;10.004;2024-03-25T14:16:48;5.17;;;1.93;;
1577;SDS011;57623;53.608;10.004;2024-03-25T14:19:14;2.27;;;1.17;;
1577;SDS011;57623;53.608;10.004;2024-03-25T14:21:40;3.13;;;1.20;;
1577;SDS011;57623;53.608;10.004;2024-03-25T14:24:08;4.10;;;1.70;;
1577;SDS011;57623;53.608;10.004;2024-03-25T14:26:34;2.60;;;1.47;;
1577;SDS011;57623;53.608;10.004;2024-03-25T14:29:00;2.57;;;1.80;;
1577;SDS011;57623;53.608;10.004;2024-03-25T14:31:26;3.40;;;1.67;;
1577;SDS011;57623;53.608;10.004;2024-03-25T14:33:53;5.03;;;1.70;;
1577;SDS011;57623;53.608;10.004;2024-03-25T14:36:19;3.57;;;1.60;;
1577;SDS011;57623;53.608;10.004;2024-03-25T14:38:45;3.03;;;1.50;;
1577;SDS011;57623;53.608;10.004;2024-03-25T14:41:13;4.00;;;1.47;;
1577;SDS011;57623;53.608;10.004;2024-03-25T14:43:43;2.43;;;1.20;;
1577;SDS011;57623;53.608;10.004;2024-03-25T14:46:10;1.87;;;1.20;;